Time;durP1;ratioP1;P1;durP2;ratioP2;P2;SDS_P1;SDS_P2;PMS_P1;PMS_P2;Temp;Humidity;BMP_temperature;BMP_pressure;BME280_temperature;BME280_humidity;BME280_pressure;Samples;Min_cycle;Max_cycle;Signal;HPM_P1;HPM_P2
2022/11/11 00:01:46;;;;;;;8.75;2.75;;;22.60;60.20;;;;;;6272113;22;20086;-70
2022/11/11 00:04:12;;;;;;;6.63;2.15;;;22.60;60.20;;;;;;6272987;22;20023;-72
2022/11/11 00:06:39;;;;;;;8.70;2.60;;;22.60;60.30;;;;;;6271959;22;20004;-72
2022/11/11 00:09:05;;;;;;;9.80;1.67;;;22.60;60.20;;;;;;6273220;22;20553;-73
2022/11/11 00:11:32;;;;;;;6.28;2.10;;;22.60;60.50;;;;;;6272399;22;20000;-71
2022/11/11 00:13:58;;;;;;;8.75;3.17;;;22.60;60.40;;;;;;6272811;22;20103;-73
2022/11/11 00:25:04;;;;;;;14.95;5.13;;;22.50;60.60;;;;;;6272566;22;20003;-72
2022/11/11 00:27:25;;;;;;;9.27;3.23;;;22.50;60.70;;;;;;6272217;22;20706;-71
2022/11/11 00:29:51;;;;;;;11.90;3.03;;;22.50;60.70;;;;;;6272872;22;19999;-68
2022/11/11 00:32:29;;;;;;;9.82;3.55;;;22.50;60.80;;;;;;6271628;22;20006;-72
2022/11/11 00:37:45;;;;;;;9.90;2.45;;;22.40;60.80;;;;;;6272433;22;20045;-71
2022/11/11 00:40:12;;;;;;;9.63;3.33;;;22.40;60.70;;;;;;6272314;22;20004;-72
2022/11/11 00:42:39;;;;;;;10.10;2.80;;;22.40;60.90;;;;;;6272630;22;20308;-70
2022/11/11 00:45:06;;;;;;;16.17;3.25;;;22.40;60.90;;;;;;6271688;22;20027;-72
2022/11/11 00:53:27;;;;;;;8.77;2.33;;;22.30;61.00;;;;;;6272661;22;20015;-71
2022/11/11 00:55:54;;;;;;;10.52;3.08;;;22.30;61.10;;;;;;6272480;22;19996;-72
2022/11/11 00:58:21;;;;;;;11.10;2.75;;;22.30;61.20;;;;;;6271398;22;20026;-69
2022/11/11 01:00:54;;;;;;;10.98;3.75;;;22.30;61.10;;;;;;6272511;22;20000;-72
2022/11/11 01:03:21;;;;;;;26.05;4.07;;;22.30;61.20;;;;;;6271348;22;20062;-69
2022/11/11 01:05:48;;;;;;;8.60;3.80;;;22.30;61.50;;;;;;6272440;22;20031;-68
2022/11/11 01:08:14;;;;;;;11.02;2.55;;;22.30;61.70;;;;;;6271922;22;20438;-72
2022/11/11 01:10:42;;;;;;;16.95;3.67;;;22.20;62.00;;;;;;6271759;22;19996;-70
2022/11/11 01:13:25;;;;;;;9.95;2.58;;;22.20;61.90;;;;;;6271192;22;20008;-70
2022/11/11 01:15:57;;;;;;;17.92;5.82;;;22.20;61.90;;;;;;6270956;22;20007;-72
2022/11/11 01:18:25;;;;;;;11.13;3.33;;;22.20;61.80;;;;;;6272442;22;20007;-67
2022/11/11 01:21:00;;;;;;;9.55;3.33;;;22.20;61.70;;;;;;6271470;22;20053;-71
2022/11/11 01:23:27;;;;;;;8.27;4.30;;;22.20;61.60;;;;;;6272257;22;20011;-70
2022/11/11 01:25:54;;;;;;;9.63;2.58;;;22.20;61.50;;;;;;6271856;22;20000;-72
2022/11/11 01:28:20;;;;;;;15.63;3.75;;;22.20;61.40;;;;;;6271181;22;20003;-71
2022/11/11 01:30:47;;;;;;;11.20;4.35;;;22.20;61.40;;;;;;6272580;22;20000;-73
2022/11/11 01:33:13;;;;;;;14.52;4.05;;;22.20;61.40;;;;;;6270310;22;19995;-72
2022/11/11 01:35:41;;;;;;;12.15;4.20;;;22.10;61.40;;;;;;6272585;22;20386;-70
2022/11/11 01:38:09;;;;;;;11.77;3.28;;;22.10;61.40;;;;;;6270555;22;20061;-68
2022/11/11 01:40:43;;;;;;;9.52;4.53;;;22.10;61.40;;;;;;6272612;22;20085;-71
2022/11/11 01:43:10;;;;;;;7.85;3.83;;;22.10;61.50;;;;;;6271427;22;20011;-68
2022/11/11 01:45:47;;;;;;;12.20;3.45;;;22.10;61.50;;;;;;6271746;22;19999;-67
2022/11/11 01:51:39;;;;;;;11.57;4.57;;;22.00;61.50;;;;;;6270773;22;20014;-71
2022/11/11 01:54:18;;;;;;;10.75;4.45;;;22.00;61.50;;;;;;6271807;22;19996;-64
2022/11/11 01:56:50;;;;;;;13.93;2.63;;;22.00;61.70;;;;;;6272261;22;20022;-68
2022/11/11 01:59:17;;;;;;;9.85;2.92;;;21.90;61.50;;;;;;6270864;22;20071;-71
2022/11/11 02:01:44;;;;;;;12.27;4.60;;;22.00;61.50;;;;;;6272363;22;20019;-69
2022/11/11 02:07:00;;;;;;;28.98;5.43;;;21.90;61.40;;;;;;6271977;22;20030;-69
2022/11/11 02:09:27;;;;;;;9.40;4.05;;;21.90;61.40;;;;;;6271399;22;20004;-70
2022/11/11 02:14:48;;;;;;;16.33;4.55;;;21.90;61.40;;;;;;6271994;22;20073;-70
2022/11/11 02:17:16;;;;;;;7.63;2.90;;;21.90;61.60;;;;;;6270859;22;20003;-73
2022/11/11 02:20:40;;;;;;;8.95;4.55;;;21.80;61.60;;;;;;6272556;22;20366;-71
2022/11/11 02:23:34;;;;;;;12.38;4.60;;;21.80;61.50;;;;;;6271294;22;20087;-68
2022/11/11 02:26:06;;;;;;;11.13;3.00;;;21.80;61.80;;;;;;6270469;22;20004;-73
2022/11/11 02:29:12;;;;;;;12.15;3.47;;;21.80;61.80;;;;;;6271452;22;20427;-71
2022/11/11 02:31:39;;;;;;;9.63;3.08;;;21.80;61.70;;;;;;6272417;22;20011;-69
2022/11/11 02:34:05;;;;;;;11.48;2.70;;;21.80;61.60;;;;;;6270646;22;20374;-66
2022/11/11 02:36:32;;;;;;;15.25;2.85;;;21.70;61.70;;;;;;6271211;22;20324;-69
2022/11/11 02:39:00;;;;;;;12.75;4.20;;;21.70;61.60;;;;;;6269111;22;20415;-72
2022/11/11 02:44:11;;;;;;;8.45;2.97;;;21.70;61.60;;;;;;6271595;22;20046;-69
2022/11/11 02:46:37;;;;;;;16.75;2.42;;;21.70;61.70;;;;;;6243465;22;20462;-68
2022/11/11 02:49:04;;;;;;;12.18;3.00;;;21.70;62.00;;;;;;6272643;22;20631;-67
2022/11/11 02:51:30;;;;;;;11.43;2.70;;;21.60;61.80;;;;;;6272052;22;20000;-68
2022/11/11 02:54:00;;;;;;;7.68;2.45;;;21.60;61.90;;;;;;6273886;22;20053;-69
2022/11/11 02:59:11;;;;;;;46.17;4.47;;;21.60;61.90;;;;;;6273083;22;20046;-67
2022/11/11 03:01:38;;;;;;;13.70;2.88;;;21.60;62.70;;;;;;6273812;22;20083;-65
2022/11/11 03:04:05;;;;;;;10.43;3.75;;;21.60;63.10;;;;;;6272395;22;20004;-69
2022/11/11 03:06:32;;;;;;;29.63;5.50;;;21.60;63.40;;;;;;6246228;22;19999;-70
2022/11/11 03:08:58;;;;;;;7.07;2.08;;;21.60;63.70;;;;;;6272402;22;20000;-67
2022/11/11 03:11:28;;;;;;;18.13;4.95;;;21.60;63.30;;;;;;6273821;22;20419;-69
2022/11/11 03:13:58;;;;;;;9.75;2.78;;;21.60;62.60;;;;;;6272105;22;20328;-70
2022/11/11 03:19:11;;;;;;;11.18;2.63;;;21.50;62.00;;;;;;6273542;22;20392;-67
2022/11/11 03:21:37;;;;;;;8.70;1.80;;;21.50;61.70;;;;;;6271833;22;20443;-66
2022/11/11 03:24:04;;;;;;;8.23;1.63;;;21.50;61.60;;;;;;6273306;22;20032;-67
2022/11/11 03:26:31;;;;;;;6.03;1.48;;;21.50;61.60;;;;;;6272663;22;20117;-68
2022/11/11 06:30:51;;;;;;;14.23;3.75;;;22.00;64.50;;;;;;6240369;22;2611707;-70
2022/11/11 06:33:20;;;;;;;10.00;3.35;;;22.00;64.10;;;;;;6281024;22;20338;-70
2022/11/11 06:35:50;;;;;;;11.13;4.15;;;22.10;63.80;;;;;;6279699;22;19996;-69
2022/11/11 06:38:17;;;;;;;11.65;3.47;;;22.10;63.50;;;;;;6280830;22;20007;-66
2022/11/11 06:40:59;;;;;;;10.48;2.63;;;22.20;63.40;;;;;;6279696;22;20011;-69
2022/11/11 06:43:25;;;;;;;15.55;4.63;;;22.30;63.30;;;;;;6281463;22;20031;-70
2022/11/11 06:45:55;;;;;;;9.80;2.80;;;22.30;63.10;;;;;;6279700;22;20003;-65
2022/11/11 06:48:23;;;;;;;7.50;2.88;;;22.40;62.80;;;;;;6280772;22;20018;-67
2022/11/11 06:50:50;;;;;;;18.00;3.67;;;22.40;62.50;;;;;;6279086;22;20010;-66
2022/11/11 06:53:18;;;;;;;11.63;2.92;;;22.40;62.30;;;;;;6280887;22;20008;-66
2022/11/11 06:55:45;;;;;;;16.08;4.38;;;22.50;62.20;;;;;;6280282;22;20038;-65
2022/11/11 06:58:17;;;;;;;20.20;4.10;;;22.60;62.20;;;;;;6279709;22;19999;-64
2022/11/11 07:00:45;;;;;;;13.98;3.67;;;22.60;62.30;;;;;;6280734;22;20000;-68
2022/11/11 07:03:20;;;;;;;16.20;3.25;;;22.60;62.40;;;;;;6278648;22;20017;-66
2022/11/11 07:05:47;;;;;;;6.93;2.33;;;22.70;62.50;;;;;;6280777;22;20027;-64
2022/11/11 07:08:18;;;;;;;6.78;2.25;;;22.60;62.50;;;;;;6278950;22;20316;-64
2022/11/11 07:10:47;;;;;;;9.95;2.40;;;22.70;62.50;;;;;;6280988;22;19996;-64
2022/11/11 07:13:17;;;;;;;5.85;2.63;;;22.80;62.40;;;;;;6279545;22;20003;-67
2022/11/11 07:15:44;;;;;;;10.77;4.57;;;22.80;62.30;;;;;;6280227;22;20377;-70
2022/11/11 07:18:11;;;;;;;10.30;2.85;;;22.80;61.90;;;;;;6280546;22;20038;-66
2022/11/11 07:20:50;;;;;;;9.93;3.13;;;22.90;61.60;;;;;;6273459;22;20266;-68
2022/11/11 07:23:16;;;;;;;8.52;2.33;;;22.90;61.50;;;;;;6273744;22;20057;-70
2022/11/11 07:25:44;;;;;;;10.50;3.40;;;22.90;61.10;;;;;;6271798;22;20424;-66
2022/11/11 07:28:10;;;;;;;28.27;5.53;;;22.90;60.80;;;;;;6273282;22;20070;-66
2022/11/11 07:30:37;;;;;;;28.20;4.90;;;22.90;60.60;;;;;;6272586;22;20027;-66
2022/11/11 07:33:12;;;;;;;25.40;4.78;;;22.90;62.30;;;;;;6273657;22;20012;-71
2022/11/11 07:35:39;;;;;;;14.57;2.50;;;23.00;62.40;;;;;;6272790;22;20056;-66
2022/11/11 07:38:05;;;;;;;15.32;3.92;;;23.00;61.80;;;;;;6272511;22;20416;-68
2022/11/11 07:40:38;;;;;;;13.82;3.15;;;23.00;61.40;;;;;;6273733;22;20124;-66
2022/11/11 07:43:04;;;;;;;6.65;2.13;;;23.00;60.70;;;;;;6269762;22;20000;-69
2022/11/11 07:45:31;;;;;;;7.65;2.53;;;23.10;60.40;;;;;;6273364;22;20011;-66
2022/11/11 07:47:57;;;;;;;12.35;3.38;;;23.10;60.10;;;;;;6244533;22;20015;-65
2022/11/11 07:50:24;;;;;;;17.25;3.53;;;23.10;60.00;;;;;;6273906;22;20042;-65
2022/11/11 07:52:50;;;;;;;21.67;4.93;;;23.10;60.40;;;;;;6271782;22;20431;-65
2022/11/11 07:55:17;;;;;;;17.25;3.70;;;23.10;60.50;;;;;;6272939;22;20026;-66
2022/11/11 07:57:46;;;;;;;12.02;3.95;;;23.10;60.90;;;;;;6272444;22;20027;-66
2022/11/11 08:00:13;;;;;;;19.65;3.83;;;23.20;61.80;;;;;;6272587;22;20093;-66
2022/11/11 08:02:40;;;;;;;13.45;3.00;;;23.20;62.10;;;;;;6273460;22;20071;-65
2022/11/11 08:05:08;;;;;;;19.13;4.82;;;23.20;62.00;;;;;;6271794;22;20079;-66
2022/11/11 08:07:35;;;;;;;18.70;4.40;;;23.20;61.70;;;;;;6273114;22;20012;-66
2022/11/11 08:10:02;;;;;;;18.70;3.78;;;23.30;61.40;;;;;;6271194;22;20011;-66
2022/11/11 08:15:27;;;;;;;10.55;5.38;;;23.30;62.60;;;;;;6204972;22;20322;-65
2022/11/11 08:17:59;;;;;;;5.60;1.48;;;23.30;61.20;;;;;;6272136;22;20007;-64
2022/11/11 08:20:26;;;;;;;4.13;1.75;;;23.30;59.50;;;;;;6273198;22;20007;-67
2022/11/11 08:22:54;;;;;;;5.03;2.55;;;23.40;58.60;;;;;;6271133;22;20502;-66
2022/11/11 08:25:21;;;;;;;4.30;1.60;;;23.40;58.20;;;;;;6273448;22;20484;-65
2022/11/11 08:27:56;;;;;;;5.10;2.33;;;23.40;58.10;;;;;;6271392;22;20020;-72
2022/11/11 08:30:25;;;;;;;;;;;23.40;58.00;;;;;;6273307;22;20015;-70
2022/11/11 08:33:03;;;;;;;3.45;1.60;;;23.50;57.90;;;;;;6243539;22;20371;-66
2022/11/11 08:35:31;;;;;;;3.42;1.23;;;23.50;57.80;;;;;;6271694;22;20011;-66
2022/11/11 08:38:03;;;;;;;7.95;2.03;;;23.60;57.80;;;;;;6272727;22;20084;-64
2022/11/11 08:40:30;;;;;;;13.57;4.10;;;23.60;57.80;;;;;;6271453;22;20053;-66
2022/11/11 08:42:57;;;;;;;11.52;3.25;;;23.60;57.80;;;;;;6273018;22;20357;-67
2022/11/11 08:45:25;;;;;;;10.00;2.47;;;23.60;57.60;;;;;;6271389;22;20008;-64
2022/11/11 08:47:51;;;;;;;11.65;2.13;;;23.60;58.10;;;;;;6272363;22;20019;-66
2022/11/11 08:50:18;;;;;;;6.95;1.67;;;23.70;59.00;;;;;;6272053;22;20026;-66
2022/11/11 08:52:52;;;;;;;4.18;1.23;;;23.70;59.50;;;;;;6271649;22;20356;-66
2022/11/11 08:55:19;;;;;;;14.82;3.38;;;23.70;58.80;;;;;;6272546;22;20061;-64
2022/11/11 08:57:45;;;;;;;6.85;1.83;;;23.80;57.90;;;;;;6271019;22;20477;-66
2022/11/11 09:00:13;;;;;;;5.07;1.70;;;23.80;57.40;;;;;;6272368;22;20014;-65
2022/11/11 09:02:39;;;;;;;10.95;2.42;;;23.90;57.00;;;;;;6271567;22;20053;-69
2022/11/11 09:05:06;;;;;;;17.38;6.20;;;23.90;57.10;;;;;;6271885;22;20030;-66
2022/11/11 09:07:33;;;;;;;2.90;1.58;;;23.90;57.40;;;;;;6272041;22;20007;-65
2022/11/11 09:09:59;;;;;;;8.93;2.38;;;24.10;57.40;;;;;;6272067;22;20019;-66
2022/11/11 09:12:26;;;;;;;5.63;1.30;;;24.10;57.10;;;;;;6272566;22;20462;-67
2022/11/11 09:14:52;;;;;;;7.45;1.80;;;24.10;57.20;;;;;;6270826;22;20030;-65
2022/11/11 09:17:19;;;;;;;1.83;1.48;;;24.20;57.60;;;;;;6272388;22;19999;-66
2022/11/11 09:19:45;;;;;;;6.05;1.40;;;24.20;57.80;;;;;;6271260;22;19999;-65
2022/11/11 09:22:12;;;;;;;8.35;2.10;;;24.30;58.00;;;;;;6272122;22;20000;-66
2022/11/11 09:24:38;;;;;;;6.93;1.60;;;24.30;58.00;;;;;;6271687;22;20004;-65
2022/11/11 09:27:05;;;;;;;6.40;1.83;;;24.30;57.90;;;;;;6272633;22;20004;-68
2022/11/11 09:29:31;;;;;;;3.88;1.08;;;24.40;57.90;;;;;;6271073;22;20093;-68
2022/11/11 09:31:58;;;;;;;3.80;1.20;;;24.40;57.80;;;;;;6271117;22;20022;-69
2022/11/11 09:34:24;;;;;;;10.52;2.13;;;24.40;57.60;;;;;;6272282;22;20008;-66
2022/11/11 09:36:56;;;;;;;11.02;1.77;;;24.40;57.50;;;;;;6271768;22;20004;-67
2022/11/11 09:39:25;;;;;;;20.90;5.20;;;24.40;57.60;;;;;;6272315;22;20003;-67
2022/11/11 09:42:14;;;;;;;17.27;4.53;;;24.50;57.80;;;;;;6271321;22;20401;-68
2022/11/11 09:45:13;;;;;;;5.53;1.70;;;24.50;58.20;;;;;;6272394;22;20003;-65
2022/11/11 09:48:01;;;;;;;9.35;2.13;;;24.50;58.20;;;;;;6271563;22;20071;-69
2022/11/11 09:50:32;;;;;;;10.82;3.08;;;24.60;58.30;;;;;;6270591;22;20016;-64
2022/11/11 09:53:16;;;;;;;6.57;2.60;;;24.60;58.40;;;;;;6271753;22;20004;-66
2022/11/11 09:55:46;;;;;;;12.75;2.88;;;24.60;58.10;;;;;;6270711;22;20027;-69
2022/11/11 09:58:22;;;;;;;8.30;2.22;;;24.70;58.10;;;;;;6272683;22;20738;-66
2022/11/11 10:01:14;;;;;;;8.18;2.08;;;24.70;58.10;;;;;;6271769;22;20008;-65
2022/11/11 10:03:50;;;;;;;9.38;1.83;;;24.70;57.90;;;;;;6271217;22;20418;-66
2022/11/11 10:06:37;;;;;;;8.63;3.15;;;24.80;57.40;;;;;;6271758;22;20035;-65
2022/11/11 10:09:17;;;;;;;6.28;1.85;;;24.80;57.00;;;;;;6270598;22;20022;-71
2022/11/11 10:11:43;;;;;;;4.07;1.67;;;24.90;56.90;;;;;;6272220;22;20004;-67
2022/11/11 10:14:10;;;;;;;3.25;1.30;;;24.90;56.70;;;;;;6271773;22;20521;-67
2022/11/11 10:16:51;;;;;;;6.22;1.48;;;24.90;56.50;;;;;;6271283;22;20549;-64
2022/11/11 10:20:19;;;;;;;6.32;2.00;;;25.00;56.30;;;;;;6245027;22;20008;-74
2022/11/11 10:22:50;;;;;;;4.35;2.05;;;25.00;56.10;;;;;;6098875;23;20097;-68
2022/11/11 10:25:25;;;;;;;6.78;1.73;;;25.10;56.00;;;;;;6118219;23;20001;-66
2022/11/11 10:27:55;;;;;;;;;;;25.10;55.70;;;;;;6119469;23;20052;-67
2022/11/11 10:30:32;;;;;;;4.75;1.17;;;25.10;55.60;;;;;;6117688;23;19905;-73
2022/11/11 10:33:18;;;;;;;14.82;2.83;;;25.20;55.50;;;;;;6253935;22;20077;-69
2022/11/11 10:35:46;;;;;;;21.27;2.80;;;25.20;55.70;;;;;;6270963;22;20008;-70
2022/11/11 10:38:17;;;;;;;3.55;1.70;;;25.30;55.90;;;;;;6272212;22;20000;-69
2022/11/11 10:40:52;;;;;;;7.45;1.60;;;25.30;55.50;;;;;;6270971;22;20000;-69
2022/11/11 10:43:52;;;;;;;18.13;2.45;;;25.40;55.20;;;;;;6271175;22;20034;-71
2022/11/11 10:46:39;;;;;;;10.85;2.05;;;25.40;55.00;;;;;;6271723;22;20065;-67
2022/11/11 10:49:20;;;;;;;9.75;1.55;;;25.50;54.90;;;;;;6270148;22;20011;-67
2022/11/11 10:51:55;;;;;;;7.38;2.58;;;25.60;54.60;;;;;;6271686;22;20058;-68
2022/11/11 10:54:52;;;;;;;11.45;1.83;;;25.60;54.00;;;;;;6271942;22;20011;-67
2022/11/11 10:57:38;;;;;;;4.07;1.40;;;25.70;53.80;;;;;;6272527;22;20050;-66
2022/11/11 11:00:16;;;;;;;4.97;1.40;;;25.70;53.80;;;;;;6273620;22;20031;-70
2022/11/11 11:03:09;;;;;;;7.13;1.55;;;25.70;54.10;;;;;;6273580;22;20623;-67
2022/11/11 11:06:01;;;;;;;3.65;1.77;;;25.70;53.80;;;;;;6272604;22;20004;-67
2022/11/11 11:08:44;;;;;;;11.52;1.98;;;25.80;53.40;;;;;;6273735;22;20348;-68
2022/11/11 11:11:37;;;;;;;6.10;1.75;;;25.80;53.20;;;;;;6272262;22;20030;-70
2022/11/11 11:14:23;;;;;;;8.93;3.05;;;25.90;53.50;;;;;;6272925;22;20386;-67
2022/11/11 11:16:54;;;;;;;5.15;2.10;;;25.90;53.40;;;;;;6273740;22;20008;-69
2022/11/11 11:19:45;;;;;;;1.33;1.00;;;25.90;53.40;;;;;;6244278;22;20033;-71
2022/11/11 11:22:45;;;;;;;5.47;1.98;;;26.00;53.50;;;;;;6273163;22;20335;-71
2022/11/11 11:25:32;;;;;;;5.70;2.00;;;25.90;53.40;;;;;;6273331;22;20049;-69
2022/11/11 11:28:05;;;;;;;6.53;1.42;;;25.90;53.80;;;;;;6243907;22;20090;-69
2022/11/11 11:30:31;;;;;;;7.05;1.75;;;25.90;53.90;;;;;;6273630;22;20449;-66
2022/11/11 11:32:59;;;;;;;8.02;1.65;;;25.90;53.40;;;;;;6271901;22;20031;-69
2022/11/11 11:35:43;;;;;;;3.38;1.55;;;25.90;53.20;;;;;;6273529;22;20327;-67
2022/11/11 11:38:12;;;;;;;4.38;1.05;;;25.90;53.40;;;;;;6273415;22;20008;-67
2022/11/11 11:40:55;;;;;;;5.82;1.38;;;25.90;53.20;;;;;;6272282;22;20000;-66
2022/11/11 11:43:44;;;;;;;3.05;1.13;;;25.80;53.00;;;;;;6274249;22;20045;-66
2022/11/11 11:46:32;;;;;;;4.97;1.40;;;25.80;52.70;;;;;;6271412;22;20011;-65
2022/11/11 11:49:25;;;;;;;5.68;1.40;;;25.80;53.00;;;;;;6272435;22;20433;-66
2022/11/11 11:52:12;;;;;;;8.13;1.33;;;25.80;53.50;;;;;;6273721;22;20440;-67
2022/11/11 11:55:11;;;;;;;8.70;1.88;;;25.80;54.30;;;;;;6271628;22;20091;-68
2022/11/11 11:58:19;;;;;;;9.93;3.42;;;25.80;54.80;;;;;;6273325;22;20008;-65
2022/11/11 12:00:54;;;;;;;6.38;1.83;;;25.80;54.90;;;;;;6189807;22;20004;-67
2022/11/11 12:03:33;;;;;;;4.50;1.70;;;25.70;54.80;;;;;;6272317;22;20008;-65
2022/11/11 12:06:18;;;;;;;7.68;2.15;;;25.70;55.10;;;;;;6273137;22;20011;-67
2022/11/11 12:09:05;;;;;;;3.85;1.25;;;25.70;55.30;;;;;;6272398;22;20038;-65
2022/11/11 12:11:36;;;;;;;9.82;2.75;;;25.70;55.40;;;;;;6272023;22;20000;-67
2022/11/11 12:14:15;;;;;;;9.60;1.90;;;25.70;55.60;;;;;;6273053;22;20360;-67
2022/11/11 12:17:06;;;;;;;8.18;2.05;;;25.70;56.00;;;;;;6271651;22;20439;-66
2022/11/11 12:19:42;;;;;;;22.58;2.70;;;25.60;55.80;;;;;;6272949;22;20011;-68
2022/11/11 12:22:46;;;;;;;12.02;4.28;;;25.70;55.80;;;;;;6271196;22;19999;-68
2022/11/11 12:25:30;;;;;;;7.57;2.03;;;25.70;56.40;;;;;;6272487;22;20007;-66
2022/11/11 12:28:26;;;;;;;13.45;2.63;;;25.70;56.40;;;;;;6273188;22;20015;-66
2022/11/11 12:31:08;;;;;;;13.77;2.85;;;25.60;56.30;;;;;;6271479;22;20458;-70
2022/11/11 12:34:04;;;;;;;8.30;2.42;;;25.70;56.10;;;;;;6273067;22;20030;-71
2022/11/11 12:36:42;;;;;;;8.35;2.42;;;25.70;56.30;;;;;;6272875;22;20063;-66
2022/11/11 12:39:12;;;;;;;7.88;2.15;;;25.80;56.10;;;;;;6271428;22;20010;-68
2022/11/11 12:42:07;;;;;;;5.80;1.52;;;25.80;55.70;;;;;;6272617;22;20011;-68
2022/11/11 12:44:41;;;;;;;9.65;1.63;;;25.80;55.60;;;;;;6238730;22;20498;-69
2022/11/11 12:47:28;;;;;;;6.65;1.50;;;25.90;55.60;;;;;;6271714;22;20010;-69
2022/11/11 12:50:27;;;;;;;9.32;2.60;;;25.90;55.10;;;;;;6273242;22;20103;-71
2022/11/11 12:53:02;;;;;;;6.22;1.95;;;25.90;54.70;;;;;;6209823;22;20008;-67
2022/11/11 12:55:44;;;;;;;9.95;3.42;;;25.90;54.40;;;;;;6273092;22;20026;-68
2022/11/11 12:58:20;;;;;;;7.47;3.10;;;26.00;54.50;;;;;;6272147;22;20010;-69
2022/11/11 13:01:04;;;;;;;9.40;1.90;;;26.10;54.60;;;;;;6271561;22;19999;-66
2022/11/11 13:04:00;;;;;;;8.27;2.97;;;26.10;54.50;;;;;;6272324;22;20431;-66
2022/11/11 13:07:03;;;;;;;5.32;2.35;;;26.20;54.40;;;;;;6270863;22;20014;-68
2022/11/11 13:09:55;;;;;;;5.20;2.25;;;26.20;54.10;;;;;;6271558;22;20011;-66
2022/11/11 13:12:34;;;;;;;11.93;2.83;;;26.30;54.10;;;;;;6273263;22;20008;-66
2022/11/11 13:15:11;;;;;;;16.67;4.85;;;26.30;53.90;;;;;;6270540;22;20000;-70
2022/11/11 13:17:40;;;;;;;15.13;2.53;;;26.30;53.70;;;;;;6272332;22;20500;-69
2022/11/11 13:20:24;;;;;;;9.50;3.03;;;26.40;53.40;;;;;;6271598;22;20099;-67
2022/11/11 13:22:52;;;;;;;5.68;2.60;;;26.40;53.00;;;;;;6272008;22;20000;-67
2022/11/11 13:25:29;;;;;;;10.00;3.03;;;26.40;53.00;;;;;;6272271;22;20327;-66
2022/11/11 13:28:48;;;;;;;15.38;2.40;;;26.40;53.90;;;;;;6271268;22;20043;-67
2022/11/11 13:31:39;;;;;;;4.07;1.60;;;26.40;53.50;;;;;;6266096;22;20043;-66
2022/11/11 13:34:26;;;;;;;6.00;2.17;;;26.50;53.40;;;;;;6272377;22;20031;-67
2022/11/11 13:36:54;;;;;;;6.40;2.22;;;26.50;53.30;;;;;;6236437;22;20390;-65
2022/11/11 13:39:48;;;;;;;4.90;1.90;;;26.50;53.40;;;;;;6272388;22;20006;-67
2022/11/11 13:42:22;;;;;;;10.80;2.58;;;26.50;53.20;;;;;;6255539;22;20030;-65
2022/11/11 13:44:57;;;;;;;9.30;3.03;;;26.50;52.90;;;;;;6272095;22;20386;-67
2022/11/11 13:47:32;;;;;;;7.90;2.22;;;26.50;52.90;;;;;;6271757;22;20604;-66
2022/11/11 13:50:04;;;;;;;11.10;3.13;;;26.50;52.70;;;;;;6270731;22;20027;-67
2022/11/11 13:52:43;;;;;;;4.80;1.77;;;26.50;52.60;;;;;;6272109;22;20066;-67
2022/11/11 13:55:24;;;;;;;6.38;2.70;;;26.50;52.40;;;;;;6243881;22;20065;-66
2022/11/11 13:58:03;;;;;;;8.43;2.75;;;26.40;52.30;;;;;;6272530;22;20034;-69
2022/11/11 14:00:37;;;;;;;7.63;1.83;;;26.40;52.20;;;;;;6269334;22;20000;-69
2022/11/11 14:03:19;;;;;;;12.32;2.88;;;26.40;51.90;;;;;;6271647;22;20008;-66
2022/11/11 14:05:46;;;;;;;5.97;1.80;;;26.40;51.60;;;;;;6272368;22;20026;-65
2022/11/11 14:08:44;;;;;;;6.60;2.53;;;26.30;51.60;;;;;;6270505;22;20065;-68
2022/11/11 14:11:31;;;;;;;9.30;2.80;;;26.40;51.50;;;;;;6242438;22;20008;-69
2022/11/11 14:14:18;;;;;;;7.30;2.22;;;26.40;51.30;;;;;;6271413;22;20008;-67
2022/11/11 14:16:45;;;;;;;15.90;3.78;;;26.40;51.30;;;;;;6270571;22;20007;-65
2022/11/11 14:19:20;;;;;;;7.00;2.45;;;26.40;51.20;;;;;;6271965;22;20095;-67
2022/11/11 14:21:55;;;;;;;5.28;1.30;;;26.30;51.00;;;;;;6270834;22;20031;-66
2022/11/11 14:24:36;;;;;;;7.72;3.08;;;26.30;50.90;;;;;;6271725;22;20402;-65
2022/11/11 14:27:24;;;;;;;4.45;2.22;;;26.30;50.80;;;;;;6271216;22;20447;-66
2022/11/11 14:29:58;;;;;;;8.45;2.00;;;26.30;50.70;;;;;;6271107;22;20012;-65
2022/11/11 14:32:48;;;;;;;7.87;2.27;;;26.30;50.80;;;;;;6273895;22;20031;-68
2022/11/11 14:35:56;;;;;;;8.32;2.72;;;26.30;50.80;;;;;;6272716;22;20335;-65
2022/11/11 14:38:49;;;;;;;4.10;1.52;;;26.30;50.70;;;;;;6230447;22;20031;-66
2022/11/11 14:41:43;;;;;;;6.28;2.13;;;26.30;50.70;;;;;;6272554;22;20015;-65
2022/11/11 14:44:34;;;;;;;5.43;1.95;;;26.30;50.60;;;;;;6271508;22;20003;-67
2022/11/11 14:47:07;;;;;;;14.20;2.83;;;26.40;50.50;;;;;;6272869;22;20000;-68
2022/11/11 14:49:58;;;;;;;4.53;1.65;;;26.40;50.40;;;;;;6273385;22;20075;-70
2022/11/11 14:52:43;;;;;;;12.07;2.72;;;26.30;51.00;;;;;;6271901;22;20011;-68
2022/11/11 14:55:29;;;;;;;11.60;2.92;;;26.30;51.20;;;;;;6273734;22;20060;-68
2022/11/11 14:58:17;;;;;;;14.13;2.88;;;26.40;51.00;;;;;;6273233;22;20003;-67
2022/11/11 15:01:19;;;;;;;4.93;2.38;;;26.40;50.80;;;;;;6272403;22;19999;-68
2022/11/11 15:03:52;;;;;;;30.38;4.55;;;26.40;50.60;;;;;;6273355;22;20058;-68
2022/11/11 15:06:40;;;;;;;12.98;3.95;;;26.40;50.90;;;;;;6271906;22;20004;-68
2022/11/11 15:09:39;;;;;;;15.93;7.35;;;26.40;50.60;;;;;;6272262;22;20296;-67
2022/11/11 15:12:36;;;;;;;23.67;20.27;;;26.40;50.10;;;;;;6273228;22;20331;-67
2022/11/11 15:15:32;;;;;;;23.70;14.82;;;26.40;49.90;;;;;;6272074;22;20347;-68
2022/11/11 15:18:16;;;;;;;;;;;26.40;50.00;;;;;;6273416;22;20415;-68
2022/11/11 15:20:59;;;;;;;6.05;4.05;;;26.30;50.00;;;;;;6273859;22;19930;-68
2022/11/11 15:23:56;;;;;;;22.77;5.55;;;26.30;49.50;;;;;;6271899;22;20004;-67
2022/11/11 15:26:37;;;;;;;18.48;3.45;;;26.30;49.30;;;;;;6271720;22;20007;-68
2022/11/11 15:29:16;;;;;;;13.63;4.18;;;26.20;49.50;;;;;;6272346;22;20012;-67
2022/11/11 15:32:06;;;;;;;3.33;2.17;;;26.20;49.90;;;;;;6271648;22;20026;-70
2022/11/11 15:34:47;;;;;;;12.25;2.70;;;26.20;49.70;;;;;;6272847;22;20008;-68
2022/11/11 15:37:45;;;;;;;8.80;2.97;;;26.10;48.90;;;;;;6270123;22;20331;-71
2022/11/11 15:40:52;;;;;;;4.90;2.00;;;26.10;48.60;;;;;;6271021;22;20049;-68
2022/11/11 15:43:58;;;;;;;4.78;1.23;;;26.00;48.30;;;;;;6266924;22;20012;-68
2022/11/11 15:46:45;;;;;;;3.05;1.60;;;26.00;48.50;;;;;;6270246;22;20317;-67
2022/11/11 15:49:14;;;;;;;6.90;2.92;;;26.00;48.50;;;;;;6243948;22;20085;-68
2022/11/11 15:52:20;;;;;;;11.85;2.75;;;25.90;48.50;;;;;;6270649;22;20095;-68
2022/11/11 15:54:51;;;;;;;4.13;1.58;;;25.90;48.50;;;;;;6269954;22;20031;-69
2022/11/11 15:57:58;;;;;;;3.55;1.67;;;25.90;48.60;;;;;;6269752;22;20113;-67
2022/11/11 16:00:32;;;;;;;4.57;1.50;;;25.80;48.90;;;;;;6243287;22;20004;-70
2022/11/11 16:03:19;;;;;;;6.68;1.85;;;25.80;49.30;;;;;;6270067;22;20057;-76
2022/11/11 16:05:50;;;;;;;8.77;1.65;;;25.80;49.50;;;;;;6270763;22;20000;-66
2022/11/11 16:08:56;;;;;;;4.55;1.80;;;25.70;49.60;;;;;;6242273;22;20102;-67
2022/11/11 16:11:23;;;;;;;7.63;1.95;;;25.70;49.60;;;;;;6270156;22;20008;-71
2022/11/11 16:14:03;;;;;;;6.15;1.48;;;25.60;49.50;;;;;;6270574;22;20011;-69
2022/11/11 16:16:51;;;;;;;3.38;2.15;;;25.60;49.40;;;;;;6269362;22;20384;-68
2022/11/11 16:19:42;;;;;;;5.25;1.42;;;25.60;49.40;;;;;;6270317;22;20008;-67
2022/11/11 16:22:28;;;;;;;3.60;1.30;;;25.50;49.40;;;;;;6268913;22;20457;-68
2022/11/11 16:25:03;;;;;;;12.88;3.72;;;25.50;49.50;;;;;;6269859;22;20439;-69
2022/11/11 16:27:32;;;;;;;13.43;4.03;;;25.50;49.90;;;;;;6269463;22;20023;-68
2022/11/11 16:30:24;;;;;;;22.85;4.47;;;25.40;50.50;;;;;;6268352;22;20450;-68
2022/11/11 16:33:36;;;;;;;19.40;4.32;;;25.40;50.80;;;;;;6270549;22;20023;-70
2022/11/11 16:36:57;;;;;;;5.28;2.55;;;25.30;50.70;;;;;;6263654;22;20011;-69
2022/11/11 16:40:06;;;;;;;6.88;1.58;;;25.30;50.60;;;;;;6269236;22;20793;-68
2022/11/11 16:42:35;;;;;;;4.05;1.67;;;25.30;50.50;;;;;;6268091;22;20026;-66
2022/11/11 16:45:47;;;;;;;7.28;3.05;;;25.20;50.20;;;;;;6268356;22;20039;-73
2022/11/11 16:48:38;;;;;;;8.25;2.80;;;25.20;50.30;;;;;;6270078;22;20018;-70
2022/11/11 16:52:02;;;;;;;9.55;1.85;;;25.20;50.40;;;;;;6271981;22;20074;-68
2022/11/11 16:54:46;;;;;;;2.97;1.35;;;25.10;51.00;;;;;;6269873;22;20434;-68
2022/11/11 16:57:43;;;;;;;6.28;2.08;;;25.10;50.40;;;;;;6270495;22;20031;-69
2022/11/11 17:00:27;;;;;;;3.15;1.23;;;25.10;50.50;;;;;;6248781;22;20086;-67
2022/11/11 17:03:29;;;;;;;7.20;2.42;;;25.00;50.60;;;;;;6244189;22;20003;-69
2022/11/11 17:06:18;;;;;;;8.75;2.97;;;25.00;50.70;;;;;;6246355;22;20008;-70
2022/11/11 17:08:45;;;;;;;9.18;2.47;;;25.00;51.00;;;;;;6269750;22;20015;-68
2022/11/11 17:12:03;;;;;;;5.78;1.92;;;25.00;51.60;;;;;;6271240;22;20362;-67
2022/11/11 17:14:40;;;;;;;8.05;2.08;;;24.90;51.80;;;;;;6188010;22;20342;-70
2022/11/11 17:17:46;;;;;;;9.30;1.80;;;24.90;52.20;;;;;;6268945;22;20004;-67